createdAt,value
2023-03-26T00:25:31.290Z,6.2
2023-03-26T00:41:13.838Z,5.6
2023-03-26T00:56:56.623Z,6.7
2023-03-26T01:12:45.834Z,5.2
2023-03-26T01:28:20.956Z,5.2
2023-03-26T01:44:04.150Z,8
2023-03-26T01:59:47.026Z,5
2023-03-26T02:15:30.104Z,3.6
2023-03-26T02:46:55.536Z,8.1
2023-03-26T03:02:38.639Z,4.19
2023-03-26T03:18:21.758Z,9
2023-03-26T03:34:04.427Z,5.4
2023-03-26T03:49:46.703Z,7.8
2023-03-26T04:05:28.913Z,6.3
2023-03-26T04:36:53.650Z,8.1
2023-03-26T04:52:36.389Z,6.3
2023-03-26T04:53:23.797Z,5.6
2023-03-26T05:09:06.952Z,4.9
2023-03-26T05:24:55.883Z,8.89
2023-03-26T05:40:31.190Z,6.4
2023-03-26T05:56:13.412Z,5.9
2023-03-26T06:12:03.500Z,6.1
2023-03-26T06:27:38.991Z,6.5
2023-03-26T06:43:21.979Z,5.8
2023-03-26T07:14:46.506Z,6.5
2023-03-26T07:30:28.773Z,5.3
2023-03-26T07:46:18.288Z,4.4
2023-03-26T08:01:54.282Z,5.6
2023-03-26T08:17:36.616Z,5.8
2023-03-26T08:33:19.307Z,6.1
2023-03-26T08:49:01.460Z,5.5
2023-03-26T09:04:43.923Z,5.9
2023-03-26T09:20:33.931Z,5
2023-03-26T09:36:09.484Z,6.9
2023-03-26T10:07:41.329Z,5.8
2023-03-26T10:39:06.608Z,5.9
2023-03-26T11:41:57.135Z,5.6
2023-03-26T12:44:48.181Z,3.7
2023-03-26T13:00:30.797Z,3.9
2023-03-26T13:16:06.408Z,3.8
2023-03-26T13:31:48.612Z,3.1
2023-03-26T14:18:56.785Z,3.5
2023-03-26T14:34:39.040Z,2.9
2023-03-26T14:50:21.629Z,3.4
2023-03-26T15:06:11.639Z,3.1
2023-03-26T15:21:47.245Z,4.5
2023-03-26T15:37:29.497Z,4.9
2023-03-26T15:53:11.737Z,4.4
2023-03-26T16:08:54.197Z,4.69
2023-03-26T16:24:36.761Z,4.5
2023-03-26T16:40:26.330Z,6.2
2023-03-26T17:11:44.855Z,6.2
2023-03-26T17:27:34.915Z,4.6
2023-03-26T17:43:10.084Z,5.6
2023-03-26T17:58:53.099Z,7.1
2023-03-26T18:14:42.572Z,6.1
2023-03-26T18:30:18.476Z,10
2023-03-26T18:46:08.018Z,6.4
2023-03-26T19:01:50.390Z,5.8
2023-03-26T19:48:51.518Z,7.9
2023-03-26T20:04:34.141Z,7.8
2023-03-26T20:20:23.601Z,7.5
2023-03-26T20:51:48.267Z,11
2023-03-26T21:54:31.834Z,11.1
2023-03-26T22:10:14.279Z,11
2023-03-26T22:26:11.307Z,10.4
2023-03-26T22:41:40.290Z,12.2
2023-03-26T22:57:36.906Z,14.1
2023-03-26T23:13:05.921Z,9.6
2023-03-26T23:28:56.024Z,10
2023-03-26T23:44:31.324Z,10.7
